sensor_id;sensor_type;location;lat;lon;timestamp;P1;durP1;ratioP1;P2;durP2;ratioP2
13953;SDS011;7049;49.444;8.522;2022-11-20T00:01:33;0.57;;;0.57;;
13953;SDS011;7049;49.444;8.522;2022-11-20T00:06:35;0.93;;;0.93;;
13953;SDS011;7049;49.444;8.522;2022-11-20T00:11:36;1.27;;;1.20;;
13953;SDS011;7049;49.444;8.522;2022-11-20T00:16:39;0.57;;;0.57;;
13953;SDS011;7049;49.444;8.522;2022-11-20T00:21:40;1.27;;;1.20;;
13953;SDS011;7049;49.444;8.522;2022-11-20T00:26:42;1.17;;;1.07;;
13953;SDS011;7049;49.444;8.522;2022-11-20T00:31:45;1.03;;;1.03;;
13953;SDS011;7049;49.444;8.522;2022-11-20T00:36:46;0.53;;;0.53;;
13953;SDS011;7049;49.444;8.522;2022-11-20T00:41:48;0.50;;;0.50;;
13953;SDS011;7049;49.444;8.522;2022-11-20T00:46:51;0.77;;;0.77;;
13953;SDS011;7049;49.444;8.522;2022-11-20T00:51:53;0.77;;;0.77;;
13953;SDS011;7049;49.444;8.522;2022-11-20T00:56:54;0.93;;;0.93;;
13953;SDS011;7049;49.444;8.522;2022-11-20T01:01:57;1.57;;;1.13;;
13953;SDS011;7049;49.444;8.522;2022-11-20T01:06:58;0.83;;;0.83;;
13953;SDS011;7049;49.444;8.522;2022-11-20T01:12:00;0.77;;;0.77;;
13953;SDS011;7049;49.444;8.522;2022-11-20T01:17:02;0.70;;;0.70;;
13953;SDS011;7049;49.444;8.522;2022-11-20T01:22:04;0.53;;;0.53;;
13953;SDS011;7049;49.444;8.522;2022-11-20T01:27:06;0.40;;;0.40;;
13953;SDS011;7049;49.444;8.522;2022-11-20T01:32:08;0.73;;;0.73;;
13953;SDS011;7049;49.444;8.522;2022-11-20T01:37:10;0.73;;;0.73;;
13953;SDS011;7049;49.444;8.522;2022-11-20T01:42:11;1.43;;;1.10;;
13953;SDS011;7049;49.444;8.522;2022-11-20T01:47:33;0.53;;;0.53;;
13953;SDS011;7049;49.444;8.522;2022-11-20T01:52:38;1.33;;;1.23;;
13953;SDS011;7049;49.444;8.522;2022-11-20T01:57:43;2.03;;;0.80;;
13953;SDS011;7049;49.444;8.522;2022-11-20T02:02:48;0.63;;;0.63;;
13953;SDS011;7049;49.444;8.522;2022-11-20T02:07:52;1.30;;;1.07;;
13953;SDS011;7049;49.444;8.522;2022-11-20T02:12:57;0.53;;;0.53;;
13953;SDS011;7049;49.444;8.522;2022-11-20T02:18:18;1.40;;;0.80;;
13953;SDS011;7049;49.444;8.522;2022-11-20T02:23:22;0.43;;;0.43;;
13953;SDS011;7049;49.444;8.522;2022-11-20T02:28:28;0.43;;;0.43;;
13953;SDS011;7049;49.444;8.522;2022-11-20T02:33:30;2.63;;;1.20;;
13953;SDS011;7049;49.444;8.522;2022-11-20T02:38:31;0.93;;;0.50;;
13953;SDS011;7049;49.444;8.522;2022-11-20T02:43:34;1.00;;;1.00;;
13953;SDS011;7049;49.444;8.522;2022-11-20T02:48:36;1.40;;;1.30;;
13953;SDS011;7049;49.444;8.522;2022-11-20T02:53:37;0.83;;;0.83;;
13953;SDS011;7049;49.444;8.522;2022-11-20T02:58:40;1.50;;;1.23;;
13953;SDS011;7049;49.444;8.522;2022-11-20T03:03:42;0.77;;;0.50;;
13953;SDS011;7049;49.444;8.522;2022-11-20T03:08:43;0.90;;;0.43;;
13953;SDS011;7049;49.444;8.522;2022-11-20T03:13:46;1.30;;;0.87;;
13953;SDS011;7049;49.444;8.522;2022-11-20T03:18:48;0.50;;;0.50;;
13953;SDS011;7049;49.444;8.522;2022-11-20T03:23:50;0.23;;;0.23;;
13953;SDS011;7049;49.444;8.522;2022-11-20T03:28:54;0.77;;;0.77;;
13953;SDS011;7049;49.444;8.522;2022-11-20T03:33:58;2.30;;;1.83;;
13953;SDS011;7049;49.444;8.522;2022-11-20T03:38:59;0.80;;;0.80;;
13953;SDS011;7049;49.444;8.522;2022-11-20T03:44:04;1.00;;;1.00;;
13953;SDS011;7049;49.444;8.522;2022-11-20T03:49:08;1.83;;;1.00;;
13953;SDS011;7049;49.444;8.522;2022-11-20T03:54:09;1.40;;;1.13;;
13953;SDS011;7049;49.444;8.522;2022-11-20T03:59:12;0.20;;;0.20;;
13953;SDS011;7049;49.444;8.522;2022-11-20T04:04:14;0.50;;;0.50;;
13953;SDS011;7049;49.444;8.522;2022-11-20T04:09:15;1.57;;;0.77;;
13953;SDS011;7049;49.444;8.522;2022-11-20T04:14:18;0.20;;;0.20;;
13953;SDS011;7049;49.444;8.522;2022-11-20T04:19:19;2.27;;;0.93;;
13953;SDS011;7049;49.444;8.522;2022-11-20T04:24:21;0.57;;;0.57;;
13953;SDS011;7049;49.444;8.522;2022-11-20T04:29:23;0.70;;;0.70;;
13953;SDS011;7049;49.444;8.522;2022-11-20T04:34:25;1.67;;;0.90;;
13953;SDS011;7049;49.444;8.522;2022-11-20T04:39:26;3.03;;;0.50;;
13953;SDS011;7049;49.444;8.522;2022-11-20T04:44:29;0.63;;;0.63;;
13953;SDS011;7049;49.444;8.522;2022-11-20T04:49:31;0.93;;;0.63;;
13953;SDS011;7049;49.444;8.522;2022-11-20T04:54:33;1.53;;;0.87;;
13953;SDS011;7049;49.444;8.522;2022-11-20T04:59:36;2.60;;;1.23;;
13953;SDS011;7049;49.444;8.522;2022-11-20T05:04:38;0.80;;;0.80;;
13953;SDS011;7049;49.444;8.522;2022-11-20T05:09:39;0.53;;;0.40;;
13953;SDS011;7049;49.444;8.522;2022-11-20T05:14:42;2.03;;;0.87;;
13953;SDS011;7049;49.444;8.522;2022-11-20T05:19:43;0.50;;;0.50;;
13953;SDS011;7049;49.444;8.522;2022-11-20T05:24:45;1.17;;;1.03;;
13953;SDS011;7049;49.444;8.522;2022-11-20T05:29:48;0.70;;;0.70;;
13953;SDS011;7049;49.444;8.522;2022-11-20T05:34:49;0.60;;;0.60;;
13953;SDS011;7049;49.444;8.522;2022-11-20T05:39:50;0.60;;;0.60;;
13953;SDS011;7049;49.444;8.522;2022-11-20T05:44:53;1.97;;;0.83;;
13953;SDS011;7049;49.444;8.522;2022-11-20T05:49:55;1.53;;;0.50;;
13953;SDS011;7049;49.444;8.522;2022-11-20T05:54:56;1.33;;;0.70;;
13953;SDS011;7049;49.444;8.522;2022-11-20T05:59:59;0.73;;;0.73;;
13953;SDS011;7049;49.444;8.522;2022-11-20T06:05:01;0.57;;;0.57;;
13953;SDS011;7049;49.444;8.522;2022-11-20T06:10:03;0.43;;;0.30;;
13953;SDS011;7049;49.444;8.522;2022-11-20T06:15:07;0.37;;;0.37;;
13953;SDS011;7049;49.444;8.522;2022-11-20T06:20:09;0.97;;;0.87;;
13953;SDS011;7049;49.444;8.522;2022-11-20T06:25:11;0.60;;;0.60;;
13953;SDS011;7049;49.444;8.522;2022-11-20T06:30:14;0.47;;;0.47;;
13953;SDS011;7049;49.444;8.522;2022-11-20T06:35:16;0.63;;;0.63;;
13953;SDS011;7049;49.444;8.522;2022-11-20T06:40:18;1.47;;;1.37;;
13953;SDS011;7049;49.444;8.522;2022-11-20T06:45:21;0.87;;;0.87;;
13953;SDS011;7049;49.444;8.522;2022-11-20T06:50:22;1.03;;;1.03;;
13953;SDS011;7049;49.444;8.522;2022-11-20T06:55:23;0.47;;;0.47;;
13953;SDS011;7049;49.444;8.522;2022-11-20T07:00:26;0.67;;;0.60;;
13953;SDS011;7049;49.444;8.522;2022-11-20T07:05:28;0.77;;;0.67;;
13953;SDS011;7049;49.444;8.522;2022-11-20T07:10:29;0.30;;;0.30;;
13953;SDS011;7049;49.444;8.522;2022-11-20T07:15:32;1.00;;;1.00;;
13953;SDS011;7049;49.444;8.522;2022-11-20T07:20:33;0.70;;;0.70;;
13953;SDS011;7049;49.444;8.522;2022-11-20T07:25:35;0.80;;;0.80;;
13953;SDS011;7049;49.444;8.522;2022-11-20T07:30:38;1.70;;;0.90;;
13953;SDS011;7049;49.444;8.522;2022-11-20T07:35:39;0.37;;;0.37;;
13953;SDS011;7049;49.444;8.522;2022-11-20T07:40:41;0.83;;;0.83;;
13953;SDS011;7049;49.444;8.522;2022-11-20T07:45:44;5.43;;;0.63;;
13953;SDS011;7049;49.444;8.522;2022-11-20T07:50:45;0.70;;;0.70;;
13953;SDS011;7049;49.444;8.522;2022-11-20T07:55:47;0.80;;;0.80;;
13953;SDS011;7049;49.444;8.522;2022-11-20T08:00:49;1.00;;;1.00;;
13953;SDS011;7049;49.444;8.522;2022-11-20T08:05:51;1.53;;;1.43;;
13953;SDS011;7049;49.444;8.522;2022-11-20T08:10:52;0.90;;;0.90;;
13953;SDS011;7049;49.444;8.522;2022-11-20T08:16:15;0.97;;;0.97;;
13953;SDS011;7049;49.444;8.522;2022-11-20T08:21:17;0.47;;;0.47;;
13953;SDS011;7049;49.444;8.522;2022-11-20T08:26:18;0.43;;;0.43;;
13953;SDS011;7049;49.444;8.522;2022-11-20T08:31:25;2.10;;;1.10;;
13953;SDS011;7049;49.444;8.522;2022-11-20T08:36:28;0.80;;;0.80;;
13953;SDS011;7049;49.444;8.522;2022-11-20T08:41:35;1.50;;;0.77;;
13953;SDS011;7049;49.444;8.522;2022-11-20T08:46:39;0.93;;;0.93;;
13953;SDS011;7049;49.444;8.522;2022-11-20T08:51:43;0.70;;;0.70;;
13953;SDS011;7049;49.444;8.522;2022-11-20T08:56:48;0.60;;;0.60;;
13953;SDS011;7049;49.444;8.522;2022-11-20T09:01:51;1.13;;;1.13;;
13953;SDS011;7049;49.444;8.522;2022-11-20T09:06:54;1.37;;;1.17;;
13953;SDS011;7049;49.444;8.522;2022-11-20T09:11:55;2.63;;;1.27;;
13953;SDS011;7049;49.444;8.522;2022-11-20T09:16:58;0.83;;;0.83;;
13953;SDS011;7049;49.444;8.522;2022-11-20T09:22:00;0.93;;;0.87;;
13953;SDS011;7049;49.444;8.522;2022-11-20T09:27:02;1.57;;;1.47;;
13953;SDS011;7049;49.444;8.522;2022-11-20T09:32:06;1.40;;;1.30;;
13953;SDS011;7049;49.444;8.522;2022-11-20T09:37:07;1.20;;;1.20;;
13953;SDS011;7049;49.444;8.522;2022-11-20T09:42:18;1.40;;;1.30;;
13953;SDS011;7049;49.444;8.522;2022-11-20T09:47:33;0.87;;;0.87;;
13953;SDS011;7049;49.444;8.522;2022-11-20T09:52:53;1.03;;;0.93;;
13953;SDS011;7049;49.444;8.522;2022-11-20T09:58:05;3.50;;;1.50;;
13953;SDS011;7049;49.444;8.522;2022-11-20T10:03:12;2.67;;;0.70;;
13953;SDS011;7049;49.444;8.522;2022-11-20T10:08:17;1.20;;;0.60;;
13953;SDS011;7049;49.444;8.522;2022-11-20T10:13:29;1.23;;;1.17;;
13953;SDS011;7049;49.444;8.522;2022-11-20T10:18:45;2.83;;;1.90;;
13953;SDS011;7049;49.444;8.522;2022-11-20T10:24:03;1.67;;;0.97;;
13953;SDS011;7049;49.444;8.522;2022-11-20T10:29:27;2.33;;;1.57;;
13953;SDS011;7049;49.444;8.522;2022-11-20T10:34:38;1.10;;;1.07;;
13953;SDS011;7049;49.444;8.522;2022-11-20T10:39:50;1.40;;;1.30;;
13953;SDS011;7049;49.444;8.522;2022-11-20T10:44:58;1.83;;;1.20;;
13953;SDS011;7049;49.444;8.522;2022-11-20T10:50:13;3.10;;;1.40;;
13953;SDS011;7049;49.444;8.522;2022-11-20T10:55:24;1.20;;;1.07;;
13953;SDS011;7049;49.444;8.522;2022-11-20T11:00:31;1.57;;;1.30;;
13953;SDS011;7049;49.444;8.522;2022-11-20T11:05:36;1.10;;;1.10;;
13953;SDS011;7049;49.444;8.522;2022-11-20T11:10:42;1.50;;;1.40;;
13953;SDS011;7049;49.444;8.522;2022-11-20T11:15:51;1.40;;;1.03;;
13953;SDS011;7049;49.444;8.522;2022-11-20T11:20:55;10.33;;;2.27;;
13953;SDS011;7049;49.444;8.522;2022-11-20T11:25:58;1.03;;;1.00;;
13953;SDS011;7049;49.444;8.522;2022-11-20T11:31:00;1.27;;;0.77;;
13953;SDS011;7049;49.444;8.522;2022-11-20T11:36:04;1.20;;;1.10;;
13953;SDS011;7049;49.444;8.522;2022-11-20T11:41:19;2.00;;;1.33;;
13953;SDS011;7049;49.444;8.522;2022-11-20T11:46:30;1.00;;;1.00;;
13953;SDS011;7049;49.444;8.522;2022-11-20T11:51:45;8.70;;;1.10;;
13953;SDS011;7049;49.444;8.522;2022-11-20T11:56:53;2.43;;;1.20;;
13953;SDS011;7049;49.444;8.522;2022-11-20T12:01:56;3.40;;;1.50;;
13953;SDS011;7049;49.444;8.522;2022-11-20T12:07:07;2.13;;;2.00;;
13953;SDS011;7049;49.444;8.522;2022-11-20T12:12:17;1.07;;;1.07;;
13953;SDS011;7049;49.444;8.522;2022-11-20T12:17:21;0.50;;;0.50;;
13953;SDS011;7049;49.444;8.522;2022-11-20T12:22:26;2.60;;;1.43;;
13953;SDS011;7049;49.444;8.522;2022-11-20T12:27:40;1.37;;;1.10;;
13953;SDS011;7049;49.444;8.522;2022-11-20T12:44:17;0.60;;;0.60;;
13953;SDS011;7049;49.444;8.522;2022-11-20T12:49:46;0.53;;;0.53;;
13953;SDS011;7049;49.444;8.522;2022-11-20T12:54:58;0.50;;;0.50;;
13953;SDS011;7049;49.444;8.522;2022-11-20T13:00:11;0.27;;;0.27;;
13953;SDS011;7049;49.444;8.522;2022-11-20T13:05:19;1.93;;;0.97;;
13953;SDS011;7049;49.444;8.522;2022-11-20T13:10:30;0.33;;;0.30;;
13953;SDS011;7049;49.444;8.522;2022-11-20T13:15:47;0.47;;;0.47;;
13953;SDS011;7049;49.444;8.522;2022-11-20T13:20:55;0.43;;;0.37;;
13953;SDS011;7049;49.444;8.522;2022-11-20T13:26:05;0.33;;;0.33;;
13953;SDS011;7049;49.444;8.522;2022-11-20T13:31:30;0.27;;;0.20;;
13953;SDS011;7049;49.444;8.522;2022-11-20T13:36:33;0.23;;;0.23;;
13953;SDS011;7049;49.444;8.522;2022-11-20T13:41:37;0.40;;;0.40;;
13953;SDS011;7049;49.444;8.522;2022-11-20T13:46:41;0.20;;;0.20;;
13953;SDS011;7049;49.444;8.522;2022-11-20T13:51:45;0.30;;;0.30;;
13953;SDS011;7049;49.444;8.522;2022-11-20T13:56:53;0.60;;;0.60;;
13953;SDS011;7049;49.444;8.522;2022-11-20T14:02:05;0.20;;;0.20;;
13953;SDS011;7049;49.444;8.522;2022-11-20T14:07:12;2.20;;;0.83;;
13953;SDS011;7049;49.444;8.522;2022-11-20T14:12:15;0.20;;;0.20;;
13953;SDS011;7049;49.444;8.522;2022-11-20T14:17:23;0.83;;;0.53;;
13953;SDS011;7049;49.444;8.522;2022-11-20T14:22:30;0.10;;;0.10;;
13953;SDS011;7049;49.444;8.522;2022-11-20T14:27:34;0.20;;;0.20;;
13953;SDS011;7049;49.444;8.522;2022-11-20T14:32:38;0.10;;;0.10;;
13953;SDS011;7049;49.444;8.522;2022-11-20T14:37:39;0.10;;;0.10;;
13953;SDS011;7049;49.444;8.522;2022-11-20T14:42:44;0.10;;;0.10;;
13953;SDS011;7049;49.444;8.522;2022-11-20T14:47:45;0.03;;;0.03;;
13953;SDS011;7049;49.444;8.522;2022-11-20T14:52:51;0.47;;;0.20;;
13953;SDS011;7049;49.444;8.522;2022-11-20T14:57:55;0.20;;;0.20;;
13953;SDS011;7049;49.444;8.522;2022-11-20T15:02:59;0.20;;;0.20;;
13953;SDS011;7049;49.444;8.522;2022-11-20T15:08:05;0.10;;;0.10;;
13953;SDS011;7049;49.444;8.522;2022-11-20T15:13:11;0.10;;;0.10;;
13953;SDS011;7049;49.444;8.522;2022-11-20T15:18:15;0.10;;;0.10;;
13953;SDS011;7049;49.444;8.522;2022-11-20T15:23:18;0.20;;;0.20;;
13953;SDS011;7049;49.444;8.522;2022-11-20T15:28:23;0.43;;;0.40;;
13953;SDS011;7049;49.444;8.522;2022-11-20T15:33:30;0.17;;;0.17;;
13953;SDS011;7049;49.444;8.522;2022-11-20T15:38:32;0.33;;;0.17;;
13953;SDS011;7049;49.444;8.522;2022-11-20T15:43:35;0.10;;;0.10;;
13953;SDS011;7049;49.444;8.522;2022-11-20T15:48:37;0.17;;;0.17;;
13953;SDS011;7049;49.444;8.522;2022-11-20T15:53:40;0.10;;;0.10;;
13953;SDS011;7049;49.444;8.522;2022-11-20T15:58:44;0.20;;;0.20;;
13953;SDS011;7049;49.444;8.522;2022-11-20T16:03:45;0.23;;;0.23;;
13953;SDS011;7049;49.444;8.522;2022-11-20T16:08:47;0.10;;;0.10;;
13953;SDS011;7049;49.444;8.522;2022-11-20T16:13:50;0.10;;;0.10;;
13953;SDS011;7049;49.444;8.522;2022-11-20T16:19:09;0.10;;;0.10;;
13953;SDS011;7049;49.444;8.522;2022-11-20T16:24:12;0.10;;;0.10;;
13953;SDS011;7049;49.444;8.522;2022-11-20T16:29:16;0.10;;;0.10;;
13953;SDS011;7049;49.444;8.522;2022-11-20T16:34:18;0.50;;;0.40;;
13953;SDS011;7049;49.444;8.522;2022-11-20T16:39:19;0.33;;;0.33;;
13953;SDS011;7049;49.444;8.522;2022-11-20T16:44:22;0.30;;;0.30;;
13953;SDS011;7049;49.444;8.522;2022-11-20T16:49:24;0.30;;;0.30;;
13953;SDS011;7049;49.444;8.522;2022-11-20T16:54:25;0.30;;;0.30;;
13953;SDS011;7049;49.444;8.522;2022-11-20T16:59:28;0.10;;;0.10;;
13953;SDS011;7049;49.444;8.522;2022-11-20T17:04:29;1.23;;;0.60;;
13953;SDS011;7049;49.444;8.522;2022-11-20T17:09:31;0.10;;;0.10;;
13953;SDS011;7049;49.444;8.522;2022-11-20T17:14:34;0.23;;;0.23;;
13953;SDS011;7049;49.444;8.522;2022-11-20T17:19:36;0.30;;;0.30;;
13953;SDS011;7049;49.444;8.522;2022-11-20T17:24:37;0.23;;;0.23;;
13953;SDS011;7049;49.444;8.522;2022-11-20T17:29:40;0.20;;;0.20;;
13953;SDS011;7049;49.444;8.522;2022-11-20T17:34:42;0.10;;;0.10;;
13953;SDS011;7049;49.444;8.522;2022-11-20T17:39:43;0.00;;;0.00;;
13953;SDS011;7049;49.444;8.522;2022-11-20T17:44:46;2.53;;;0.73;;
13953;SDS011;7049;49.444;8.522;2022-11-20T17:49:47;0.10;;;0.10;;
13953;SDS011;7049;49.444;8.522;2022-11-20T17:54:49;0.30;;;0.30;;
13953;SDS011;7049;49.444;8.522;2022-11-20T17:59:56;0.10;;;0.10;;
13953;SDS011;7049;49.444;8.522;2022-11-20T18:04:57;0.50;;;0.50;;
13953;SDS011;7049;49.444;8.522;2022-11-20T18:09:58;0.50;;;0.50;;
13953;SDS011;7049;49.444;8.522;2022-11-20T18:15:01;0.30;;;0.30;;
13953;SDS011;7049;49.444;8.522;2022-11-20T18:20:04;0.10;;;0.10;;
13953;SDS011;7049;49.444;8.522;2022-11-20T18:25:08;0.33;;;0.33;;
13953;SDS011;7049;49.444;8.522;2022-11-20T18:30:12;0.20;;;0.20;;
13953;SDS011;7049;49.444;8.522;2022-11-20T18:35:14;0.10;;;0.10;;
13953;SDS011;7049;49.444;8.522;2022-11-20T18:40:16;0.10;;;0.10;;
13953;SDS011;7049;49.444;8.522;2022-11-20T18:45:18;0.37;;;0.37;;
13953;SDS011;7049;49.444;8.522;2022-11-20T18:50:20;0.43;;;0.40;;
13953;SDS011;7049;49.444;8.522;2022-11-20T18:55:22;0.20;;;0.20;;
13953;SDS011;7049;49.444;8.522;2022-11-20T19:00:26;0.17;;;0.17;;
13953;SDS011;7049;49.444;8.522;2022-11-20T19:05:27;0.20;;;0.20;;
13953;SDS011;7049;49.444;8.522;2022-11-20T19:10:29;0.10;;;0.10;;
13953;SDS011;7049;49.444;8.522;2022-11-20T19:15:33;0.27;;;0.27;;
13953;SDS011;7049;49.444;8.522;2022-11-20T19:20:36;0.10;;;0.10;;
13953;SDS011;7049;49.444;8.522;2022-11-20T19:25:39;0.10;;;0.10;;
13953;SDS011;7049;49.444;8.522;2022-11-20T19:30:42;0.30;;;0.30;;
13953;SDS011;7049;49.444;8.522;2022-11-20T19:35:44;0.13;;;0.13;;
13953;SDS011;7049;49.444;8.522;2022-11-20T19:40:47;0.30;;;0.30;;
13953;SDS011;7049;49.444;8.522;2022-11-20T19:45:51;0.30;;;0.30;;
13953;SDS011;7049;49.444;8.522;2022-11-20T19:50:53;0.30;;;0.30;;
13953;SDS011;7049;49.444;8.522;2022-11-20T19:55:55;0.10;;;0.10;;
13953;SDS011;7049;49.444;8.522;2022-11-20T20:01:05;0.30;;;0.30;;
13953;SDS011;7049;49.444;8.522;2022-11-20T20:06:11;0.20;;;0.20;;
13953;SDS011;7049;49.444;8.522;2022-11-20T20:11:17;0.23;;;0.23;;
13953;SDS011;7049;49.444;8.522;2022-11-20T20:16:23;0.10;;;0.10;;
13953;SDS011;7049;49.444;8.522;2022-11-20T20:21:28;0.30;;;0.30;;
13953;SDS011;7049;49.444;8.522;2022-11-20T20:26:31;0.10;;;0.10;;
13953;SDS011;7049;49.444;8.522;2022-11-20T20:31:34;0.20;;;0.20;;
13953;SDS011;7049;49.444;8.522;2022-11-20T20:36:37;0.40;;;0.40;;
13953;SDS011;7049;49.444;8.522;2022-11-20T20:41:39;0.20;;;0.20;;
13953;SDS011;7049;49.444;8.522;2022-11-20T20:46:42;0.20;;;0.20;;
13953;SDS011;7049;49.444;8.522;2022-11-20T20:51:45;0.20;;;0.20;;
13953;SDS011;7049;49.444;8.522;2022-11-20T20:56:47;0.00;;;0.00;;
13953;SDS011;7049;49.444;8.522;2022-11-20T21:01:52;0.20;;;0.20;;
13953;SDS011;7049;49.444;8.522;2022-11-20T21:06:55;0.20;;;0.20;;
13953;SDS011;7049;49.444;8.522;2022-11-20T21:11:57;0.17;;;0.17;;
13953;SDS011;7049;49.444;8.522;2022-11-20T21:17:00;0.20;;;0.20;;
13953;SDS011;7049;49.444;8.522;2022-11-20T21:22:05;0.47;;;0.47;;
13953;SDS011;7049;49.444;8.522;2022-11-20T21:27:07;0.27;;;0.27;;
13953;SDS011;7049;49.444;8.522;2022-11-20T21:32:14;0.10;;;0.10;;
13953;SDS011;7049;49.444;8.522;2022-11-20T21:37:16;0.10;;;0.10;;
13953;SDS011;7049;49.444;8.522;2022-11-20T21:42:18;0.23;;;0.23;;
13953;SDS011;7049;49.444;8.522;2022-11-20T21:47:25;0.10;;;0.10;;
13953;SDS011;7049;49.444;8.522;2022-11-20T21:52:28;0.10;;;0.10;;
13953;SDS011;7049;49.444;8.522;2022-11-20T21:57:31;0.30;;;0.30;;
13953;SDS011;7049;49.444;8.522;2022-11-20T22:02:36;0.50;;;0.43;;
13953;SDS011;7049;49.444;8.522;2022-11-20T22:07:41;0.33;;;0.33;;
13953;SDS011;7049;49.444;8.522;2022-11-20T22:12:44;0.20;;;0.20;;
13953;SDS011;7049;49.444;8.522;2022-11-20T22:17:49;1.80;;;0.57;;
13953;SDS011;7049;49.444;8.522;2022-11-20T22:23:14;0.20;;;0.20;;
13953;SDS011;7049;49.444;8.522;2022-11-20T22:28:15;0.10;;;0.10;;
13953;SDS011;7049;49.444;8.522;2022-11-20T22:33:19;0.10;;;0.10;;
13953;SDS011;7049;49.444;8.522;2022-11-20T22:38:23;0.10;;;0.10;;
13953;SDS011;7049;49.444;8.522;2022-11-20T22:43:25;0.10;;;0.10;;
13953;SDS011;7049;49.444;8.522;2022-11-20T22:48:27;0.10;;;0.10;;
13953;SDS011;7049;49.444;8.522;2022-11-20T22:53:29;0.23;;;0.20;;
13953;SDS011;7049;49.444;8.522;2022-11-20T22:58:31;0.10;;;0.10;;
13953;SDS011;7049;49.444;8.522;2022-11-20T23:03:35;1.13;;;0.50;;
13953;SDS011;7049;49.444;8.522;2022-11-20T23:08:38;0.10;;;0.10;;
13953;SDS011;7049;49.444;8.522;2022-11-20T23:13:41;0.10;;;0.10;;
13953;SDS011;7049;49.444;8.522;2022-11-20T23:18:44;0.10;;;0.10;;
13953;SDS011;7049;49.444;8.522;2022-11-20T23:23:46;0.23;;;0.23;;
13953;SDS011;7049;49.444;8.522;2022-11-20T23:28:49;0.13;;;0.13;;
13953;SDS011;7049;49.444;8.522;2022-11-20T23:33:52;0.23;;;0.23;;
13953;SDS011;7049;49.444;8.522;2022-11-20T23:38:53;0.10;;;0.10;;
13953;SDS011;7049;49.444;8.522;2022-11-20T23:43:55;0.10;;;0.10;;
13953;SDS011;7049;49.444;8.522;2022-11-20T23:48:57;0.13;;;0.13;;
13953;SDS011;7049;49.444;8.522;2022-11-20T23:53:59;0.63;;;0.63;;
13953;SDS011;7049;49.444;8.522;2022-11-20T23:59:00;0.33;;;0.33;;
